createdAt,value
2018-03-03T00:00:29.416Z,13.70
2018-03-03T00:03:32.719Z,10.38
2018-03-03T00:06:36.015Z,11.85
2018-03-03T00:09:39.306Z,14.32
2018-03-03T00:12:43.336Z,12.30
2018-03-03T00:15:46.729Z,11.12
2018-03-03T00:18:50.092Z,12.20
2018-03-03T00:21:53.850Z,13.13
2018-03-03T00:24:57.182Z,12.70
2018-03-03T00:28:00.787Z,11.23
2018-03-03T00:31:04.076Z,8.35
2018-03-03T00:34:07.392Z,10.57
2018-03-03T00:37:10.765Z,3.12
2018-03-03T00:40:14.829Z,10.30
2018-03-03T00:43:18.421Z,5.35
2018-03-03T00:46:21.668Z,9.18
2018-03-03T00:49:25.769Z,11.73
2018-03-03T00:52:29.912Z,12.10
2018-03-03T00:55:33.237Z,13.13
2018-03-03T00:58:36.502Z,6.00
2018-03-03T01:01:39.825Z,10.50
2018-03-03T01:04:43.920Z,11.95
2018-03-03T01:07:47.304Z,9.13
2018-03-03T01:10:51.466Z,10.25
2018-03-03T01:13:54.784Z,11.10
2018-03-03T01:16:58.091Z,7.90
2018-03-03T01:20:01.442Z,7.20
2018-03-03T01:23:04.709Z,8.40
2018-03-03T01:26:08.016Z,11.70
2018-03-03T01:29:11.300Z,8.18
2018-03-03T01:32:15.386Z,8.63
2018-03-03T01:35:18.703Z,10.85
2018-03-03T01:38:22.065Z,10.55
2018-03-03T01:41:25.497Z,13.00
2018-03-03T01:44:29.599Z,11.60
2018-03-03T01:47:33.666Z,10.60
2018-03-03T01:50:37.002Z,6.75
2018-03-03T01:53:40.748Z,6.82
2018-03-03T01:56:44.004Z,13.02
2018-03-03T01:59:47.277Z,6.87
2018-03-03T02:02:50.557Z,7.78
2018-03-03T02:05:54.604Z,11.45
2018-03-03T02:08:57.952Z,11.60
2018-03-03T02:12:01.272Z,10.27
2018-03-03T02:15:05.311Z,13.13
2018-03-03T02:18:08.693Z,9.30
2018-03-03T02:21:12.008Z,9.63
2018-03-03T02:24:15.331Z,8.98
2018-03-03T02:27:18.658Z,10.98
2018-03-03T02:30:22.770Z,12.05
2018-03-03T02:33:26.804Z,6.75
2018-03-03T02:36:30.879Z,8.88
2018-03-03T02:39:34.323Z,4.90
2018-03-03T02:42:39.088Z,3.53
2018-03-03T02:45:42.635Z,10.85
2018-03-03T02:48:45.904Z,8.13
2018-03-03T02:51:49.240Z,9.05
2018-03-03T02:54:52.533Z,7.60
2018-03-03T02:57:56.584Z,8.65
2018-03-03T03:00:59.920Z,7.32
2018-03-03T03:04:03.200Z,4.45
2018-03-03T03:07:07.275Z,8.57
2018-03-03T03:10:10.589Z,9.57
2018-03-03T03:13:13.899Z,8.15
2018-03-03T03:16:17.226Z,8.20
2018-03-03T03:19:20.836Z,10.73
2018-03-03T03:22:24.120Z,6.28
2018-03-03T03:25:27.463Z,7.22
2018-03-03T03:28:30.746Z,6.20
2018-03-03T03:31:34.804Z,5.60
2018-03-03T03:34:38.058Z,7.95
2018-03-03T03:37:41.354Z,8.93
2018-03-03T03:40:44.766Z,8.40
2018-03-03T03:43:48.069Z,7.55
2018-03-03T03:46:51.351Z,8.77
2018-03-03T03:49:54.662Z,5.70
2018-03-03T03:52:57.929Z,5.70
2018-03-03T03:56:01.522Z,10.65
2018-03-03T03:59:04.994Z,5.28
2018-03-03T04:02:08.310Z,5.28
2018-03-03T04:05:12.432Z,10.95
2018-03-03T04:08:15.734Z,9.52
2018-03-03T04:11:18.999Z,8.35
2018-03-03T04:14:22.274Z,10.48
2018-03-03T04:17:25.613Z,6.07
2018-03-03T04:20:28.895Z,4.95
2018-03-03T04:23:32.178Z,7.22
2018-03-03T04:26:35.633Z,5.78
2018-03-03T04:29:38.903Z,7.05
2018-03-03T04:32:42.251Z,5.95
2018-03-03T04:35:45.833Z,7.80
2018-03-03T04:38:49.189Z,6.35
2018-03-03T04:41:52.451Z,7.70
2018-03-03T04:44:55.683Z,7.18
2018-03-03T04:47:58.937Z,7.05
2018-03-03T04:51:02.297Z,8.18
2018-03-03T04:54:05.668Z,6.18
2018-03-03T04:57:08.903Z,8.45
2018-03-03T05:00:18.738Z,8.00
2018-03-03T05:03:38.519Z,5.65
2018-03-03T05:10:28.109Z,7.35
2018-03-03T05:13:35.005Z,8.45
2018-03-03T05:16:52.174Z,9.93
2018-03-03T05:20:00.967Z,8.68
2018-03-03T05:23:10.594Z,9.80
2018-03-03T05:26:20.340Z,11.12
2018-03-03T05:29:29.267Z,7.72
2018-03-03T05:32:36.561Z,10.35
2018-03-03T05:39:26.554Z,9.45
2018-03-03T05:42:48.757Z,10.98
2018-03-03T05:46:09.792Z,11.18
2018-03-03T05:49:18.737Z,10.80
2018-03-03T05:52:27.778Z,12.82
2018-03-03T05:55:51.949Z,9.73
2018-03-03T06:02:37.942Z,12.55
2018-03-03T06:05:58.108Z,11.18
2018-03-03T06:09:02.230Z,6.07
2018-03-03T06:12:05.630Z,12.15
2018-03-03T06:15:08.977Z,8.40
2018-03-03T06:18:12.294Z,6.50
2018-03-03T06:21:15.650Z,10.30
2018-03-03T06:24:19.042Z,10.85
2018-03-03T06:27:22.711Z,6.30
2018-03-03T06:30:25.966Z,5.57
2018-03-03T06:33:29.552Z,3.58
2018-03-03T06:36:32.815Z,8.25
2018-03-03T06:39:36.114Z,9.65
2018-03-03T06:42:39.425Z,9.90
2018-03-03T06:45:42.961Z,9.88
2018-03-03T06:48:46.275Z,9.57
2018-03-03T06:51:49.992Z,5.70
2018-03-03T06:54:53.287Z,8.95
2018-03-03T06:57:56.606Z,6.68
2018-03-03T07:00:59.950Z,5.15
2018-03-03T07:04:03.213Z,8.63
2018-03-03T07:07:06.611Z,7.55
2018-03-03T07:10:10.642Z,3.65
2018-03-03T07:13:13.950Z,5.53
2018-03-03T07:16:17.389Z,5.37
2018-03-03T07:19:21.467Z,7.97
2018-03-03T07:22:24.898Z,9.23
2018-03-03T07:25:28.153Z,9.57
2018-03-03T07:28:31.642Z,8.27
2018-03-03T07:31:35.939Z,8.32
2018-03-03T07:34:40.110Z,5.75
2018-03-03T07:37:43.503Z,9.05
2018-03-03T07:40:46.792Z,7.93
2018-03-03T07:43:50.086Z,7.12
2018-03-03T07:46:53.703Z,3.42
2018-03-03T07:49:57.231Z,9.02
2018-03-03T07:53:00.747Z,6.43
2018-03-03T07:56:04.881Z,7.40
2018-03-03T07:59:08.326Z,5.80
2018-03-03T08:02:12.552Z,3.15
2018-03-03T08:05:16.086Z,3.83
2018-03-03T08:08:19.496Z,9.10
2018-03-03T08:11:23.475Z,11.57
2018-03-03T08:14:26.920Z,5.30
2018-03-03T08:17:30.565Z,4.90
2018-03-03T08:20:34.092Z,5.68
2018-03-03T08:23:37.499Z,11.52
2018-03-03T08:26:41.016Z,7.30
2018-03-03T08:29:44.434Z,4.90
2018-03-03T08:32:47.878Z,8.38
2018-03-03T08:35:52.094Z,6.37
2018-03-03T08:38:55.529Z,8.80
2018-03-03T08:41:58.992Z,6.28
2018-03-03T08:45:02.497Z,13.95
2018-03-03T08:48:06.686Z,13.18
2018-03-03T08:51:10.087Z,5.80
2018-03-03T08:54:13.509Z,5.55
2018-03-03T08:57:17.792Z,13.77
2018-03-03T09:00:21.142Z,12.05
2018-03-03T09:03:24.486Z,5.72
2018-03-03T09:06:27.964Z,7.82
2018-03-03T09:09:31.435Z,16.40
2018-03-03T09:12:34.874Z,5.53
2018-03-03T09:15:38.258Z,5.10
2018-03-03T09:18:42.642Z,10.68
2018-03-03T09:21:46.206Z,14.13
2018-03-03T09:24:49.565Z,11.90
2018-03-03T09:27:52.859Z,14.57
2018-03-03T09:30:56.209Z,10.75
2018-03-03T09:33:59.694Z,15.10
2018-03-03T09:37:02.999Z,8.35
2018-03-03T09:40:06.641Z,14.90
2018-03-03T09:43:10.814Z,6.35
2018-03-03T09:46:14.216Z,18.42
2018-03-03T09:49:18.473Z,10.32
2018-03-03T09:52:21.910Z,2.72
2018-03-03T09:55:26.047Z,6.40
2018-03-03T09:58:30.137Z,5.20
2018-03-03T10:01:34.090Z,7.30
2018-03-03T10:04:38.336Z,17.45
2018-03-03T10:07:42.071Z,8.30
2018-03-03T10:10:46.318Z,5.45
2018-03-03T10:13:49.740Z,10.80
2018-03-03T10:16:53.150Z,12.68
2018-03-03T10:19:56.637Z,16.27
2018-03-03T10:23:00.114Z,5.62
2018-03-03T10:26:03.570Z,12.73
2018-03-03T10:29:07.003Z,7.40
2018-03-03T10:32:11.134Z,6.00
2018-03-03T10:35:14.657Z,8.00
2018-03-03T10:38:18.038Z,9.57
2018-03-03T10:41:21.460Z,22.10
2018-03-03T10:44:24.944Z,7.10
2018-03-03T10:47:28.693Z,8.55
2018-03-03T10:50:33.012Z,22.45
2018-03-03T10:53:36.409Z,22.20
2018-03-03T10:56:39.808Z,20.50
2018-03-03T10:59:43.340Z,22.92
2018-03-03T11:02:46.736Z,8.73
2018-03-03T11:05:50.843Z,18.40
2018-03-03T11:08:55.120Z,17.40
2018-03-03T11:11:58.524Z,20.95
2018-03-03T11:15:01.879Z,19.67
2018-03-03T11:18:05.271Z,22.35
2018-03-03T11:21:08.726Z,20.95
2018-03-03T11:24:12.177Z,23.42
2018-03-03T11:27:17.971Z,18.60
2018-03-03T11:30:23.061Z,22.83
2018-03-03T11:33:28.332Z,20.45
2018-03-03T11:36:32.919Z,21.73
2018-03-03T11:39:36.426Z,13.73
2018-03-03T11:42:40.751Z,15.48
2018-03-03T11:45:44.326Z,17.37
2018-03-03T11:48:47.807Z,19.83
2018-03-03T11:51:51.280Z,21.40
2018-03-03T11:54:54.685Z,11.65
2018-03-03T11:57:58.162Z,10.60
2018-03-03T12:01:01.669Z,10.15
2018-03-03T12:04:06.584Z,22.55
2018-03-03T12:07:12.510Z,18.12
2018-03-03T12:10:16.670Z,5.37
2018-03-03T12:13:22.846Z,9.63
2018-03-03T12:16:27.775Z,19.10
2018-03-03T12:19:34.289Z,22.85
2018-03-03T12:22:38.535Z,13.27
2018-03-03T12:25:42.478Z,9.88
2018-03-03T12:28:45.976Z,14.20
2018-03-03T12:31:50.548Z,22.02
2018-03-03T12:34:55.867Z,14.40
2018-03-03T12:37:59.350Z,16.00
2018-03-03T12:41:03.570Z,9.32
2018-03-03T12:44:07.841Z,15.15
2018-03-03T12:47:11.342Z,19.58
2018-03-03T12:50:15.595Z,21.30
2018-03-03T12:53:23.919Z,24.30
2018-03-03T12:56:28.833Z,24.05
2018-03-03T12:59:32.292Z,22.10
2018-03-03T13:02:35.798Z,10.40
2018-03-03T13:05:39.259Z,16.33
2018-03-03T13:08:42.814Z,20.80
2018-03-03T13:11:46.257Z,18.73
2018-03-03T13:14:49.744Z,21.30
2018-03-03T13:17:53.294Z,21.10
2018-03-03T13:20:57.615Z,21.08
2018-03-03T13:24:01.171Z,19.92
2018-03-03T13:27:05.447Z,15.07
2018-03-03T13:30:09.763Z,22.92
2018-03-03T13:33:13.235Z,23.15
2018-03-03T13:36:17.444Z,22.13
2018-03-03T13:39:20.987Z,19.45
2018-03-03T13:42:24.481Z,22.05
2018-03-03T13:45:28.011Z,20.58
2018-03-03T13:48:31.391Z,18.85
2018-03-03T13:51:34.846Z,23.10
2018-03-03T13:54:38.290Z,20.10
2018-03-03T13:57:41.784Z,20.67
2018-03-03T14:00:45.184Z,17.62
2018-03-03T14:03:48.670Z,20.48
2018-03-03T14:06:52.156Z,17.42
2018-03-03T14:09:55.520Z,20.70
2018-03-03T14:12:59.758Z,14.85
2018-03-03T14:16:03.878Z,19.65
2018-03-03T14:19:07.290Z,21.98
2018-03-03T14:22:10.745Z,20.35
2018-03-03T14:25:14.180Z,25.02
2018-03-03T14:28:18.442Z,11.85
2018-03-03T14:31:21.853Z,16.75
2018-03-03T14:34:28.225Z,17.45
2018-03-03T14:37:31.630Z,21.25
2018-03-03T14:40:34.966Z,20.25
2018-03-03T14:43:38.264Z,16.95
2018-03-03T14:46:42.598Z,22.02
2018-03-03T14:49:45.968Z,21.33
2018-03-03T14:52:50.295Z,14.87
2018-03-03T14:55:53.603Z,13.80
2018-03-03T14:58:57.715Z,21.40
2018-03-03T15:02:01.897Z,20.98
2018-03-03T15:05:05.272Z,18.17
2018-03-03T15:08:08.609Z,22.62
2018-03-03T15:11:12.009Z,27.10
2018-03-03T15:14:15.359Z,20.52
2018-03-03T15:17:18.843Z,24.17
2018-03-03T15:20:22.338Z,22.90
2018-03-03T15:23:25.705Z,24.37
2018-03-03T15:26:30.018Z,22.08
2018-03-03T15:29:33.437Z,22.13
2018-03-03T15:32:36.851Z,25.15
2018-03-03T15:35:40.437Z,21.83
2018-03-03T15:38:43.850Z,19.77
2018-03-03T15:41:47.207Z,21.33
2018-03-03T15:44:50.571Z,21.58
2018-03-03T15:47:54.016Z,20.92
2018-03-03T15:50:57.299Z,23.35
2018-03-03T15:54:00.636Z,23.40
2018-03-03T15:57:04.029Z,19.42
2018-03-03T16:00:07.413Z,20.95
2018-03-03T16:03:10.830Z,19.33
2018-03-03T16:06:14.212Z,21.23
2018-03-03T16:09:17.580Z,20.75
2018-03-03T16:12:21.026Z,19.70
2018-03-03T16:15:24.386Z,19.33
2018-03-03T16:18:27.756Z,25.35
2018-03-03T16:21:31.216Z,24.08
2018-03-03T16:24:34.591Z,24.35
2018-03-03T16:27:37.933Z,25.80
2018-03-03T16:30:42.133Z,12.20
2018-03-03T16:33:47.058Z,24.08
2018-03-03T16:36:50.405Z,15.45
2018-03-03T16:39:54.498Z,11.07
2018-03-03T16:42:58.619Z,25.00
2018-03-03T16:46:02.041Z,21.48
2018-03-03T16:49:05.433Z,22.02
2018-03-03T16:52:08.736Z,22.55
2018-03-03T16:55:12.831Z,23.83
2018-03-03T16:58:16.988Z,20.67
2018-03-03T17:01:21.261Z,21.33
2018-03-03T17:04:25.126Z,19.30
2018-03-03T17:07:28.609Z,17.42
2018-03-03T17:10:32.659Z,18.92
2018-03-03T17:13:36.021Z,21.17
2018-03-03T17:16:39.378Z,24.20
2018-03-03T17:19:43.600Z,25.58
2018-03-03T17:22:46.935Z,14.07
2018-03-03T17:25:50.331Z,20.40
2018-03-03T17:28:53.696Z,18.90
2018-03-03T17:31:57.045Z,19.60
2018-03-03T17:35:00.397Z,14.07
2018-03-03T17:38:04.543Z,16.83
2018-03-03T17:41:08.929Z,17.77
2018-03-03T17:44:12.308Z,20.30
2018-03-03T17:47:15.699Z,24.95
2018-03-03T17:50:19.097Z,26.30
2018-03-03T17:53:22.538Z,22.65
2018-03-03T17:56:26.015Z,19.60
2018-03-03T17:59:29.509Z,21.50
2018-03-03T18:02:33.092Z,20.52
2018-03-03T18:05:36.494Z,21.55
2018-03-03T18:08:39.859Z,22.70
2018-03-03T18:11:58.998Z,17.85
2018-03-03T18:15:03.142Z,23.15
2018-03-03T18:18:06.479Z,18.40
2018-03-03T18:21:09.831Z,16.08
2018-03-03T18:24:38.933Z,17.35
2018-03-03T18:27:43.282Z,20.55
2018-03-03T18:30:47.689Z,19.60
2018-03-03T18:33:51.088Z,19.62
2018-03-03T18:36:54.563Z,19.25
2018-03-03T18:39:57.913Z,15.70
2018-03-03T18:43:01.386Z,15.98
2018-03-03T18:46:04.837Z,17.85
2018-03-03T18:49:08.186Z,16.87
2018-03-03T18:52:11.606Z,19.50
2018-03-03T18:55:15.012Z,17.48
2018-03-03T18:58:18.382Z,15.98
2018-03-03T19:01:21.823Z,13.95
2018-03-03T19:04:25.157Z,16.98
2018-03-03T19:07:29.049Z,16.70
2018-03-03T19:10:33.193Z,16.70
2018-03-03T19:13:37.658Z,15.30
2018-03-03T19:16:41.053Z,19.30
2018-03-03T19:19:44.374Z,18.98
2018-03-03T19:22:47.886Z,17.05
2018-03-03T19:25:51.237Z,6.40
2018-03-03T19:28:54.660Z,17.67
2018-03-03T19:31:57.957Z,19.40
2018-03-03T19:35:01.270Z,14.98
2018-03-03T19:38:04.574Z,12.73
2018-03-03T19:41:07.902Z,18.12
2018-03-03T19:44:11.258Z,19.08
2018-03-03T19:47:14.605Z,17.90
2018-03-03T19:50:17.854Z,11.48
2018-03-03T19:53:21.207Z,17.55
2018-03-03T19:56:25.272Z,14.68
2018-03-03T19:59:28.661Z,21.50
2018-03-03T20:02:32.253Z,16.30
2018-03-03T20:05:35.555Z,9.80
2018-03-03T20:08:38.921Z,14.95
2018-03-03T20:11:42.546Z,13.57
2018-03-03T20:14:45.989Z,14.40
2018-03-03T20:17:49.537Z,11.77
2018-03-03T20:20:53.266Z,20.10
2018-03-03T20:23:57.012Z,14.65
2018-03-03T20:27:00.446Z,11.40
2018-03-03T20:30:04.090Z,13.90
2018-03-03T20:33:07.521Z,19.02
2018-03-03T20:36:10.840Z,21.15
2018-03-03T20:39:14.149Z,11.32
2018-03-03T20:42:17.518Z,12.93
2018-03-03T20:45:21.615Z,14.38
2018-03-03T20:48:24.921Z,11.80
2018-03-03T20:51:29.020Z,24.55
2018-03-03T20:54:32.353Z,16.15
2018-03-03T20:57:36.558Z,12.82
2018-03-03T21:00:40.102Z,13.65
2018-03-03T21:03:43.874Z,6.45
2018-03-03T21:06:48.069Z,14.90
2018-03-03T21:09:52.428Z,12.90
2018-03-03T21:12:55.858Z,19.15
2018-03-03T21:15:59.367Z,19.23
2018-03-03T21:19:03.522Z,22.45
2018-03-03T21:22:06.815Z,22.25
2018-03-03T21:25:10.874Z,17.98
2018-03-03T21:28:14.178Z,16.92
2018-03-03T21:31:17.970Z,19.83
2018-03-03T21:34:21.295Z,22.27
2018-03-03T21:37:24.663Z,22.60
2018-03-03T21:40:28.727Z,19.65
2018-03-03T21:43:32.031Z,20.40
2018-03-03T21:46:35.680Z,36.55
2018-03-03T21:49:39.080Z,18.05
2018-03-03T21:52:42.581Z,22.23
2018-03-03T21:55:45.887Z,20.77
2018-03-03T21:58:49.228Z,18.05
2018-03-03T22:01:53.350Z,22.30
2018-03-03T22:04:56.740Z,17.12
2018-03-03T22:08:00.993Z,20.73
2018-03-03T22:11:04.385Z,21.42
2018-03-03T22:14:08.462Z,17.00
2018-03-03T22:17:11.772Z,16.52
2018-03-03T22:20:15.103Z,16.87
2018-03-03T22:23:18.423Z,18.73
2018-03-03T22:26:21.782Z,20.92
2018-03-03T22:29:25.882Z,21.12
2018-03-03T22:32:29.446Z,19.00
2018-03-03T22:35:32.955Z,19.15
2018-03-03T22:38:36.309Z,21.50
2018-03-03T22:41:39.709Z,21.08
2018-03-03T22:44:43.083Z,17.00
2018-03-03T22:47:46.387Z,19.50
2018-03-03T22:50:49.762Z,22.17
2018-03-03T22:53:53.854Z,19.35
2018-03-03T22:56:57.145Z,22.27
2018-03-03T23:00:00.716Z,26.25
2018-03-03T23:03:05.864Z,17.80
2018-03-03T23:06:09.445Z,21.65
2018-03-03T23:09:12.834Z,18.58
2018-03-03T23:12:16.169Z,18.15
2018-03-03T23:15:19.588Z,17.80
2018-03-03T23:18:22.963Z,16.42
2018-03-03T23:21:27.172Z,16.55
2018-03-03T23:24:30.573Z,15.48
2018-03-03T23:27:34.769Z,18.77
2018-03-03T23:30:38.180Z,17.62
2018-03-03T23:33:42.334Z,15.40
2018-03-03T23:36:45.632Z,17.40
2018-03-03T23:39:48.949Z,16.73
2018-03-03T23:42:52.260Z,17.75
2018-03-03T23:45:55.526Z,18.35
2018-03-03T23:48:58.838Z,16.27
2018-03-03T23:52:02.127Z,17.08
2018-03-03T23:55:05.464Z,19.17
2018-03-03T23:58:08.686Z,18.45
